Terminal Aerodrome Forecast
Issued by NWS Greer, SC

Home | Current Version | Previous Version | Text Only | Print | Product List | Glossary On
Versions: 1 2 3 4 5 6 7 8 9 10 11 12 13
000
FTUS42 KGSP 301739
TAFGSP
TAF
KGSP 301739Z 3018/3118 02008KT P6SM SCT050
     FM302000 02007KT P6SM VCSH BKN050
      TEMPO 3020/3023 3SM TSRA OVC040CB
     FM310000 02003KT P6SM SCT250
     FM311500 06005KT P6SM FEW040=

USA.gov is the U.S. government's official web portal to all federal, state and local government web resources and services.